createdAt,value
2023-03-10T00:01:55.417Z,73.73
2023-03-10T00:04:24.975Z,74.02
2023-03-10T00:06:54.672Z,74.25
2023-03-10T00:09:24.216Z,74.34
2023-03-10T00:11:53.786Z,74.49
2023-03-10T00:14:23.333Z,74.85
2023-03-10T00:16:52.998Z,75.29
2023-03-10T00:19:22.527Z,75.19
2023-03-10T00:21:52.141Z,75.26
2023-03-10T00:24:22.177Z,75.57
2023-03-10T00:26:52.402Z,75.67
2023-03-10T00:29:22.598Z,76.14
2023-03-10T00:31:52.129Z,76.29
2023-03-10T00:34:22.254Z,76.76
2023-03-10T00:36:54.149Z,76.95
2023-03-10T00:39:23.950Z,77.27
2023-03-10T00:41:53.580Z,77.77
2023-03-10T00:44:23.127Z,77.53
2023-03-10T00:46:53.289Z,78.26
2023-03-10T00:49:22.813Z,78.81
2023-03-10T00:51:52.385Z,78.61
2023-03-10T00:54:22.422Z,78.62
2023-03-10T00:56:52.741Z,79.15
2023-03-10T00:59:22.293Z,78.88
2023-03-10T01:01:51.940Z,79.00
2023-03-10T01:04:21.618Z,79.15
2023-03-10T01:06:51.549Z,79.30
2023-03-10T01:09:21.287Z,79.64
2023-03-10T01:11:50.996Z,79.56
2023-03-10T01:14:20.601Z,79.92
2023-03-10T01:16:51.317Z,80.31
2023-03-10T01:19:21.375Z,80.08
2023-03-10T01:21:51.456Z,80.39
2023-03-10T01:24:21.041Z,80.77
2023-03-10T01:26:50.575Z,80.80
2023-03-10T01:29:20.384Z,80.94
2023-03-10T01:31:50.563Z,81.05
2023-03-10T01:34:20.111Z,81.18
2023-03-10T01:36:51.221Z,81.28
2023-03-10T01:39:21.313Z,81.12
2023-03-10T01:41:50.907Z,81.36
2023-03-10T01:44:22.398Z,81.30
2023-03-10T01:46:56.099Z,81.74
2023-03-10T01:49:33.641Z,81.51
2023-03-10T01:52:07.574Z,81.71
2023-03-10T01:54:44.100Z,81.55
2023-03-10T01:57:17.365Z,81.83
2023-03-10T01:59:47.411Z,81.83
2023-03-10T02:02:19.545Z,81.63
2023-03-10T02:04:51.650Z,82.07
2023-03-10T02:07:29.719Z,81.97
2023-03-10T02:10:01.271Z,82.01
2023-03-10T02:12:30.890Z,82.05
2023-03-10T02:15:04.400Z,82.37
2023-03-10T02:17:35.330Z,82.10
2023-03-10T02:20:30.236Z,82.17
2023-03-10T02:23:01.231Z,82.84
2023-03-10T02:25:39.280Z,82.74
2023-03-10T02:28:09.474Z,82.93
2023-03-10T02:30:44.440Z,82.78
2023-03-10T02:33:18.594Z,82.90
2023-03-10T02:35:48.437Z,83.06
2023-03-10T02:38:22.488Z,83.48
2023-03-10T02:40:55.215Z,83.29
2023-03-10T02:43:30.146Z,83.40
2023-03-10T02:46:07.070Z,83.42
2023-03-10T02:48:40.090Z,83.53
2023-03-10T02:51:16.875Z,83.69
2023-03-10T02:53:46.446Z,83.73
2023-03-10T02:56:16.308Z,83.81
2023-03-10T02:58:46.889Z,84.18
2023-03-10T03:01:16.556Z,83.92
2023-03-10T03:03:47.271Z,84.00
2023-03-10T03:06:17.145Z,83.98
2023-03-10T03:08:48.197Z,84.21
2023-03-10T03:11:19.190Z,84.46
2023-03-10T03:13:50.017Z,84.35
2023-03-10T03:16:20.293Z,84.70
2023-03-10T03:18:53.408Z,84.46
2023-03-10T03:21:24.373Z,84.57
2023-03-10T03:23:54.528Z,84.54
2023-03-10T03:26:27.475Z,84.67
2023-03-10T03:29:11.422Z,85.13
2023-03-10T03:31:41.437Z,84.92
2023-03-10T03:34:21.184Z,85.11
2023-03-10T03:36:53.326Z,85.11
2023-03-10T03:39:27.363Z,85.07
2023-03-10T03:42:00.334Z,85.10
2023-03-10T03:44:33.708Z,85.19
2023-03-10T03:47:04.951Z,85.61
2023-03-10T03:49:35.242Z,85.58
2023-03-10T03:52:06.226Z,85.28
2023-03-10T03:54:37.080Z,85.21
2023-03-10T03:57:06.878Z,85.28
2023-03-10T03:59:38.448Z,85.45
2023-03-10T04:02:08.208Z,85.61
2023-03-10T04:04:38.393Z,85.77
2023-03-10T04:07:08.422Z,85.62
2023-03-10T04:09:40.016Z,85.61
2023-03-10T04:12:10.868Z,85.83
2023-03-10T04:14:41.100Z,85.44
2023-03-10T04:17:12.365Z,85.79
2023-03-10T04:19:42.100Z,85.70
2023-03-10T04:22:13.273Z,85.79
2023-03-10T04:24:43.302Z,85.93
2023-03-10T04:27:13.369Z,85.88
2023-03-10T04:29:44.108Z,86.17
2023-03-10T04:32:13.752Z,86.41
2023-03-10T04:34:44.353Z,86.10
2023-03-10T04:37:13.987Z,86.44
2023-03-10T04:39:44.175Z,86.22
2023-03-10T04:42:13.817Z,86.44
2023-03-10T04:44:45.045Z,86.21
2023-03-10T04:47:14.764Z,86.58
2023-03-10T04:49:44.374Z,86.18
2023-03-10T04:52:14.989Z,86.40
2023-03-10T04:54:45.178Z,86.41
2023-03-10T04:57:16.282Z,86.49
2023-03-10T04:59:46.290Z,86.60
2023-03-10T05:02:17.121Z,86.91
2023-03-10T05:04:47.536Z,86.71
2023-03-10T05:07:17.379Z,86.72
2023-03-10T05:09:50.600Z,86.93
2023-03-10T05:12:21.269Z,86.61
2023-03-10T05:14:51.400Z,86.85
2023-03-10T05:17:21.027Z,87.01
2023-03-10T05:19:51.237Z,87.13
2023-03-10T05:22:20.928Z,87.18
2023-03-10T05:24:50.477Z,87.39
2023-03-10T05:27:22.420Z,87.43
2023-03-10T05:29:52.946Z,87.31
2023-03-10T05:32:24.859Z,87.29
2023-03-10T05:34:55.216Z,87.53
2023-03-10T05:37:24.811Z,87.73
2023-03-10T05:39:54.836Z,87.55
2023-03-10T05:42:25.416Z,87.54
2023-03-10T05:44:55.492Z,87.69
2023-03-10T05:47:25.611Z,87.82
2023-03-10T05:49:55.452Z,87.63
2023-03-10T05:52:24.984Z,87.97
2023-03-10T05:54:55.601Z,87.84
2023-03-10T05:57:25.273Z,88.08
2023-03-10T05:59:55.586Z,88.11
2023-03-10T06:02:25.996Z,88.11
2023-03-10T06:04:55.637Z,88.21
2023-03-10T06:07:25.214Z,88.12
2023-03-10T06:09:54.757Z,88.57
2023-03-10T06:12:24.402Z,88.51
2023-03-10T06:14:53.969Z,88.46
2023-03-10T06:17:23.581Z,88.69
2023-03-10T06:19:53.128Z,88.67
2023-03-10T06:22:22.677Z,88.79
2023-03-10T06:24:52.315Z,88.97
2023-03-10T06:27:21.896Z,89.00
2023-03-10T06:29:51.465Z,89.32
2023-03-10T06:32:21.098Z,89.09
2023-03-10T06:34:50.690Z,89.00
2023-03-10T06:37:20.721Z,89.45
2023-03-10T06:39:50.307Z,89.51
2023-03-10T06:42:19.953Z,89.49
2023-03-10T06:44:49.497Z,89.36
2023-03-10T06:47:20.362Z,89.55
2023-03-10T06:49:49.917Z,89.51
2023-03-10T06:52:19.545Z,89.70
2023-03-10T06:54:49.094Z,89.80
2023-03-10T06:57:20.980Z,89.82
2023-03-10T06:59:51.593Z,89.89
2023-03-10T07:02:21.135Z,89.94
2023-03-10T07:04:51.534Z,90.00
2023-03-10T07:07:21.652Z,90.04
2023-03-10T07:09:51.655Z,90.13
2023-03-10T07:12:21.986Z,89.79
2023-03-10T07:14:51.570Z,90.17
2023-03-10T07:17:21.143Z,90.50
2023-03-10T07:19:50.848Z,90.55
2023-03-10T07:22:21.464Z,91.38
2023-03-10T07:24:54.443Z,91.99
2023-03-10T07:27:24.563Z,92.67
2023-03-10T07:29:54.077Z,93.63
2023-03-10T07:32:24.614Z,94.20
2023-03-10T07:34:54.157Z,94.83
2023-03-10T07:37:23.753Z,95.31
2023-03-10T07:39:56.665Z,96.02
2023-03-10T07:42:26.231Z,96.07
2023-03-10T07:44:56.449Z,96.72
2023-03-10T07:47:26.171Z,96.99
2023-03-10T07:49:55.978Z,97.30
2023-03-10T07:52:25.958Z,97.33
2023-03-10T07:54:55.468Z,97.73
2023-03-10T07:57:24.999Z,97.71
2023-03-10T07:59:54.641Z,98.45
2023-03-10T08:02:24.202Z,98.67
2023-03-10T08:04:54.430Z,98.85
2023-03-10T08:07:27.045Z,99.10
2023-03-10T08:09:58.464Z,99.30
2023-03-10T08:12:28.222Z,99.55
2023-03-10T08:14:58.038Z,99.75
2023-03-10T08:17:30.302Z,99.58
2023-03-10T08:20:01.413Z,100.00
2023-03-10T08:22:31.030Z,99.99
2023-03-10T08:25:01.656Z,99.97
2023-03-10T08:27:32.193Z,100.00
2023-03-10T08:30:02.103Z,100.00
2023-03-10T08:32:34.161Z,100.00
2023-03-10T08:35:06.089Z,100.00
2023-03-10T08:37:35.804Z,100.00
2023-03-10T08:40:07.506Z,100.00
2023-03-10T08:42:37.193Z,100.00
2023-03-10T08:45:09.066Z,100.00
2023-03-10T08:47:38.664Z,100.00
2023-03-10T08:50:10.868Z,100.00
2023-03-10T08:52:40.749Z,100.00
2023-03-10T08:55:12.136Z,100.00
2023-03-10T08:57:41.742Z,100.00
2023-03-10T09:00:16.160Z,100.00
2023-03-10T09:02:46.807Z,100.00
2023-03-10T09:05:16.513Z,100.00
2023-03-10T09:07:46.047Z,100.00
2023-03-10T09:10:15.813Z,100.00
2023-03-10T09:12:45.385Z,100.00
2023-03-10T09:15:15.559Z,100.00
2023-03-10T09:17:45.145Z,100.00
2023-03-10T09:20:15.160Z,100.00
2023-03-10T09:22:44.991Z,100.00
2023-03-10T09:25:14.520Z,100.00
2023-03-10T09:27:46.590Z,100.00
2023-03-10T09:30:17.232Z,100.00
2023-03-10T09:32:46.830Z,100.00
2023-03-10T09:35:16.662Z,100.00
2023-03-10T09:37:46.303Z,100.00
2023-03-10T09:40:18.049Z,100.00
2023-03-10T09:42:49.200Z,100.00
2023-03-10T09:45:29.408Z,100.00
2023-03-10T09:48:27.118Z,100.00
2023-03-10T09:50:58.736Z,100.00
2023-03-10T09:53:51.785Z,100.00
2023-03-10T09:56:28.949Z,100.00
2023-03-10T09:59:04.981Z,100.00
2023-03-10T10:01:35.720Z,100.00
2023-03-10T10:04:11.335Z,100.00
2023-03-10T10:06:45.974Z,100.00
2023-03-10T10:09:24.220Z,100.00
2023-03-10T10:11:54.010Z,100.00
2023-03-10T10:14:30.433Z,100.00
2023-03-10T10:17:09.061Z,100.00
2023-03-10T10:19:40.460Z,100.00
2023-03-10T10:22:18.085Z,100.00
2023-03-10T10:25:01.482Z,100.00
2023-03-10T10:27:33.084Z,100.00
2023-03-10T10:30:28.306Z,100.00
2023-03-10T10:32:59.658Z,100.00
2023-03-10T10:35:32.002Z,100.00
2023-03-10T10:38:04.021Z,100.00
2023-03-10T10:40:46.054Z,100.00
2023-03-10T10:43:20.521Z,100.00
2023-03-10T10:45:54.969Z,100.00
2023-03-10T10:48:39.100Z,100.00
2023-03-10T10:51:23.907Z,100.00
2023-03-10T10:53:54.319Z,100.00
2023-03-10T10:56:24.567Z,100.00
2023-03-10T10:59:06.493Z,100.00
2023-03-10T11:01:50.105Z,100.00
2023-03-10T11:04:20.734Z,100.00
2023-03-10T11:06:50.731Z,100.00
2023-03-10T11:09:22.105Z,100.00
2023-03-10T11:12:05.270Z,100.00
2023-03-10T11:14:44.556Z,100.00
2023-03-10T11:17:19.039Z,100.00
2023-03-10T11:20:01.145Z,100.00
2023-03-10T11:22:39.470Z,100.00
2023-03-10T11:25:21.064Z,100.00
2023-03-10T11:28:12.282Z,100.00
2023-03-10T11:30:51.746Z,100.00
2023-03-10T11:33:27.862Z,100.00
2023-03-10T11:36:05.261Z,100.00
2023-03-10T11:38:41.778Z,100.00
2023-03-10T11:41:16.138Z,100.00
2023-03-10T11:43:56.042Z,100.00
2023-03-10T11:46:29.084Z,100.00
2023-03-10T11:49:07.535Z,100.00
2023-03-10T11:51:41.440Z,100.00
2023-03-10T11:54:19.161Z,100.00
2023-03-10T11:56:50.244Z,100.00
2023-03-10T11:59:23.030Z,100.00
2023-03-10T12:01:54.693Z,100.00
2023-03-10T12:04:30.593Z,100.00
2023-03-10T12:07:04.383Z,100.00
2023-03-10T12:09:41.676Z,100.00
2023-03-10T12:12:16.494Z,100.00
2023-03-10T12:14:47.230Z,100.00
2023-03-10T12:17:17.942Z,100.00
2023-03-10T12:20:11.376Z,100.00
2023-03-10T12:22:41.884Z,100.00
2023-03-10T12:25:43.392Z,100.00
2023-03-10T12:28:23.708Z,100.00
2023-03-10T12:30:57.025Z,100.00
2023-03-10T12:33:53.109Z,100.00
2023-03-10T12:36:39.750Z,100.00
2023-03-10T12:39:41.891Z,100.00
2023-03-10T12:42:29.521Z,100.00
2023-03-10T12:45:24.975Z,100.00
2023-03-10T12:48:03.412Z,100.00
2023-03-10T12:50:36.273Z,100.00
2023-03-10T12:53:24.054Z,100.00
2023-03-10T12:56:20.783Z,100.00
2023-03-10T12:58:57.981Z,100.00
2023-03-10T13:01:35.192Z,100.00
2023-03-10T13:04:08.509Z,100.00
2023-03-10T13:06:39.981Z,100.00
2023-03-10T13:09:22.122Z,100.00
2023-03-10T13:11:54.656Z,100.00
2023-03-10T13:14:33.204Z,100.00
2023-03-10T13:17:03.749Z,100.00
2023-03-10T13:19:35.968Z,100.00
2023-03-10T13:22:05.752Z,100.00
2023-03-10T13:24:37.868Z,100.00
2023-03-10T13:27:12.395Z,100.00
2023-03-10T13:29:53.730Z,100.00
2023-03-10T13:32:23.826Z,100.00
2023-03-10T13:34:53.453Z,100.00
2023-03-10T13:37:23.187Z,100.00
2023-03-10T13:39:52.762Z,100.00
2023-03-10T13:42:37.134Z,100.00
2023-03-10T13:45:22.218Z,100.00
2023-03-10T13:47:52.205Z,100.00
2023-03-10T13:50:22.265Z,100.00
2023-03-10T13:52:57.358Z,100.00
2023-03-10T13:55:27.999Z,100.00
2023-03-10T13:57:58.896Z,100.00
2023-03-10T14:00:29.045Z,100.00
2023-03-10T14:02:58.405Z,100.00
2023-03-10T14:05:45.049Z,100.00
2023-03-10T14:08:24.032Z,100.00
2023-03-10T14:10:53.532Z,100.00
2023-03-10T14:13:43.817Z,100.00
2023-03-10T14:16:13.737Z,100.00
2023-03-10T14:18:43.941Z,100.00
2023-03-10T14:21:32.197Z,100.00
2023-03-10T14:24:07.227Z,100.00
2023-03-10T14:26:37.276Z,100.00
2023-03-10T14:29:15.449Z,100.00
2023-03-10T14:31:51.498Z,100.00
2023-03-10T14:34:20.838Z,100.00
2023-03-10T14:36:50.267Z,100.00
2023-03-10T14:39:19.747Z,100.00
2023-03-10T14:41:49.347Z,100.00
2023-03-10T14:44:18.741Z,100.00
2023-03-10T14:46:52.383Z,100.00
2023-03-10T14:49:25.076Z,100.00
2023-03-10T14:51:54.665Z,100.00
2023-03-10T14:54:25.103Z,100.00
2023-03-10T14:56:58.525Z,100.00
2023-03-10T14:59:28.790Z,100.00
2023-03-10T15:02:03.070Z,100.00
2023-03-10T15:04:32.514Z,100.00
2023-03-10T15:07:01.860Z,100.00
2023-03-10T15:09:31.189Z,100.00
2023-03-10T15:12:00.802Z,100.00
2023-03-10T15:14:30.202Z,100.00
2023-03-10T15:16:59.772Z,100.00
2023-03-10T15:19:29.201Z,100.00
2023-03-10T15:21:58.515Z,100.00
2023-03-10T15:24:27.849Z,100.00
2023-03-10T15:26:57.241Z,100.00
2023-03-10T15:29:26.948Z,100.00
2023-03-10T15:31:57.465Z,100.00
2023-03-10T15:34:26.801Z,100.00
2023-03-10T15:36:56.378Z,100.00
2023-03-10T15:39:32.070Z,100.00
2023-03-10T15:42:02.524Z,100.00
2023-03-10T15:44:31.850Z,100.00
2023-03-10T15:47:01.244Z,100.00
2023-03-10T15:49:30.806Z,100.00
2023-03-10T15:52:00.266Z,100.00
2023-03-10T15:54:29.717Z,100.00
2023-03-10T15:57:00.579Z,100.00
2023-03-10T15:59:29.966Z,100.00
2023-03-10T16:01:59.253Z,100.00
2023-03-10T16:04:30.322Z,100.00
2023-03-10T16:07:03.551Z,100.00
2023-03-10T16:09:34.000Z,100.00
2023-03-10T16:12:04.466Z,100.00
2023-03-10T16:14:33.939Z,100.00
2023-03-10T16:17:03.331Z,100.00
2023-03-10T16:19:32.790Z,100.00
2023-03-10T16:22:02.113Z,100.00
2023-03-10T16:24:31.488Z,100.00
2023-03-10T16:27:00.861Z,100.00
2023-03-10T16:29:30.223Z,100.00
2023-03-10T16:31:59.576Z,100.00
2023-03-10T16:34:28.928Z,100.00
2023-03-10T16:36:58.214Z,100.00
2023-03-10T16:39:30.443Z,100.00
2023-03-10T16:41:59.772Z,100.00
2023-03-10T16:44:29.066Z,100.00
2023-03-10T16:46:58.533Z,100.00
2023-03-10T16:49:27.850Z,100.00
2023-03-10T16:51:57.083Z,100.00
2023-03-10T16:54:26.484Z,100.00
2023-03-10T16:56:58.468Z,100.00
2023-03-10T16:59:28.139Z,100.00
2023-03-10T17:01:57.457Z,100.00
2023-03-10T17:04:27.691Z,100.00
2023-03-10T17:06:57.006Z,100.00
2023-03-10T17:09:26.314Z,100.00
2023-03-10T17:11:55.750Z,100.00
2023-03-10T17:14:25.191Z,100.00
2023-03-10T17:16:55.392Z,100.00
2023-03-10T17:19:29.310Z,100.00
2023-03-10T17:21:59.593Z,100.00
2023-03-10T17:24:29.064Z,100.00
2023-03-10T17:26:58.419Z,100.00
2023-03-10T17:29:27.761Z,100.00
2023-03-10T17:31:57.056Z,100.00
2023-03-10T17:34:28.731Z,100.00
2023-03-10T17:36:58.229Z,100.00
2023-03-10T17:39:28.332Z,100.00
2023-03-10T17:41:57.855Z,100.00
2023-03-10T17:44:27.172Z,100.00
2023-03-10T17:46:56.709Z,100.00
2023-03-10T17:49:26.144Z,100.00
2023-03-10T17:51:55.479Z,100.00
2023-03-10T17:54:25.051Z,100.00
2023-03-10T17:56:54.682Z,100.00
2023-03-10T17:59:24.109Z,100.00
2023-03-10T18:01:53.516Z,100.00
2023-03-10T18:04:22.807Z,100.00
2023-03-10T18:06:52.082Z,100.00
2023-03-10T18:09:21.493Z,100.00
2023-03-10T18:11:50.781Z,100.00
2023-03-10T18:14:20.108Z,100.00
2023-03-10T18:16:49.745Z,100.00
2023-03-10T18:19:20.644Z,100.00
2023-03-10T18:21:51.915Z,100.00
2023-03-10T18:24:21.942Z,100.00
2023-03-10T18:26:51.258Z,100.00
2023-03-10T18:29:20.617Z,100.00
2023-03-10T18:31:49.992Z,100.00
2023-03-10T18:34:19.648Z,100.00
2023-03-10T18:36:51.069Z,100.00
2023-03-10T18:39:20.422Z,100.00
2023-03-10T18:41:52.937Z,100.00
2023-03-10T18:44:22.271Z,100.00
2023-03-10T18:46:51.707Z,100.00
2023-03-10T18:49:21.014Z,100.00
2023-03-10T18:51:50.418Z,100.00
2023-03-10T18:54:19.742Z,100.00
2023-03-10T18:56:49.210Z,100.00
2023-03-10T18:59:18.918Z,100.00
2023-03-10T19:01:49.010Z,100.00
2023-03-10T19:04:18.625Z,100.00
2023-03-10T19:06:48.459Z,100.00
2023-03-10T19:09:18.678Z,100.00
2023-03-10T19:11:49.464Z,100.00
2023-03-10T19:14:18.955Z,100.00
2023-03-10T19:16:49.773Z,100.00
2023-03-10T19:19:19.471Z,100.00
2023-03-10T19:21:48.994Z,100.00
2023-03-10T19:24:18.394Z,100.00
2023-03-10T19:26:49.172Z,100.00
2023-03-10T19:29:18.587Z,100.00
2023-03-10T19:31:48.148Z,100.00
2023-03-10T19:34:17.753Z,100.00
2023-03-10T19:36:47.159Z,100.00
2023-03-10T19:39:16.876Z,100.00
2023-03-10T19:41:46.214Z,100.00
2023-03-10T19:44:15.549Z,100.00
2023-03-10T19:46:45.067Z,100.00
2023-03-10T19:49:14.557Z,100.00
2023-03-10T19:51:44.013Z,100.00
2023-03-10T19:54:13.457Z,100.00
2023-03-10T19:56:43.058Z,100.00
2023-03-10T19:59:12.653Z,100.00
2023-03-10T20:01:43.487Z,100.00
2023-03-10T20:04:12.787Z,100.00
2023-03-10T20:06:42.290Z,100.00
2023-03-10T20:09:11.616Z,100.00
2023-03-10T20:11:41.338Z,100.00
2023-03-10T20:14:10.994Z,100.00
2023-03-10T20:16:40.509Z,100.00
2023-03-10T20:19:10.033Z,100.00
2023-03-10T20:21:41.026Z,100.00
2023-03-10T20:24:10.502Z,100.00
2023-03-10T20:26:39.915Z,100.00
2023-03-10T20:29:09.276Z,100.00
2023-03-10T20:31:39.009Z,100.00
2023-03-10T20:34:16.159Z,100.00
2023-03-10T20:36:45.723Z,100.00
2023-03-10T20:39:15.772Z,100.00
2023-03-10T20:41:47.192Z,100.00
2023-03-10T20:44:18.666Z,100.00
2023-03-10T20:46:48.011Z,100.00
2023-03-10T20:49:17.377Z,100.00
2023-03-10T20:51:46.737Z,100.00
2023-03-10T20:54:16.095Z,100.00
2023-03-10T20:56:45.888Z,100.00
2023-03-10T20:59:15.187Z,100.00
2023-03-10T21:01:44.545Z,100.00
2023-03-10T21:04:13.870Z,100.00
2023-03-10T21:06:43.176Z,100.00
2023-03-10T21:09:12.697Z,100.00
2023-03-10T21:11:42.112Z,100.00
2023-03-10T21:14:11.857Z,100.00
2023-03-10T21:16:41.614Z,100.00
2023-03-10T21:19:11.388Z,100.00
2023-03-10T21:21:41.060Z,100.00
2023-03-10T21:24:10.538Z,100.00
2023-03-10T21:26:39.819Z,100.00
2023-03-10T21:29:09.141Z,100.00
2023-03-10T21:31:38.495Z,100.00
2023-03-10T21:34:07.830Z,100.00
2023-03-10T21:36:37.119Z,100.00
2023-03-10T21:39:08.373Z,100.00
2023-03-10T21:41:37.799Z,100.00
2023-03-10T21:44:07.230Z,100.00
2023-03-10T21:46:37.085Z,100.00
2023-03-10T21:49:06.908Z,100.00
2023-03-10T21:51:37.161Z,100.00
2023-03-10T21:54:07.403Z,100.00
2023-03-10T21:56:36.766Z,100.00
2023-03-10T21:59:06.889Z,100.00
2023-03-10T22:01:36.311Z,100.00
2023-03-10T22:04:05.685Z,100.00
2023-03-10T22:06:35.019Z,100.00
2023-03-10T22:09:04.840Z,100.00
2023-03-10T22:11:35.656Z,100.00
2023-03-10T22:14:05.180Z,100.00
2023-03-10T22:16:34.493Z,100.00
2023-03-10T22:19:03.935Z,100.00
2023-03-10T22:21:33.168Z,100.00
2023-03-10T22:24:03.081Z,100.00
2023-03-10T22:26:32.412Z,100.00
2023-03-10T22:29:01.782Z,100.00
2023-03-10T22:31:31.158Z,100.00
2023-03-10T22:34:00.565Z,100.00
2023-03-10T22:36:29.979Z,100.00
2023-03-10T22:38:59.254Z,100.00
2023-03-10T22:41:28.531Z,100.00
2023-03-10T22:43:58.122Z,100.00
2023-03-10T22:46:27.621Z,100.00
2023-03-10T22:48:56.900Z,100.00
2023-03-10T22:51:26.592Z,100.00
2023-03-10T22:53:55.888Z,100.00
2023-03-10T22:56:25.231Z,100.00
2023-03-10T22:58:55.099Z,100.00
2023-03-10T23:01:24.446Z,100.00
2023-03-10T23:03:53.741Z,100.00
2023-03-10T23:06:24.002Z,100.00
2023-03-10T23:08:53.273Z,100.00
2023-03-10T23:11:23.168Z,100.00
2023-03-10T23:13:52.815Z,100.00
2023-03-10T23:16:23.199Z,100.00
2023-03-10T23:18:52.770Z,100.00
2023-03-10T23:21:22.028Z,100.00
2023-03-10T23:23:51.355Z,100.00
2023-03-10T23:26:21.049Z,100.00
2023-03-10T23:28:50.424Z,100.00
2023-03-10T23:31:19.811Z,100.00
2023-03-10T23:33:49.167Z,100.00
2023-03-10T23:36:18.477Z,100.00
2023-03-10T23:38:47.786Z,100.00
2023-03-10T23:41:18.096Z,100.00
2023-03-10T23:43:47.419Z,100.00
2023-03-10T23:46:16.784Z,100.00
2023-03-10T23:48:46.037Z,100.00
2023-03-10T23:51:16.843Z,100.00
2023-03-10T23:53:46.420Z,100.00
2023-03-10T23:56:15.807Z,100.00
2023-03-10T23:58:45.090Z,100.00
